sensor_id;sensor_type;location;lat;lon;timestamp;temperature;humidity
10263;DHT22;5177;50.068;8.156;2023-01-19T00:01:07;-0.60;99.90
10263;DHT22;5177;50.068;8.156;2023-01-19T00:03:33;-0.60;99.90
10263;DHT22;5177;50.068;8.156;2023-01-19T00:06:03;-0.60;99.90
10263;DHT22;5177;50.068;8.156;2023-01-19T00:08:28;-0.60;99.90
10263;DHT22;5177;50.068;8.156;2023-01-19T00:10:53;-0.60;99.90
10263;DHT22;5177;50.068;8.156;2023-01-19T00:13:19;-0.70;99.90
10263;DHT22;5177;50.068;8.156;2023-01-19T00:15:44;-0.70;99.90
10263;DHT22;5177;50.068;8.156;2023-01-19T00:18:10;-0.70;99.90
10263;DHT22;5177;50.068;8.156;2023-01-19T00:20:35;-0.80;99.90
10263;DHT22;5177;50.068;8.156;2023-01-19T00:23:01;-0.80;99.90
10263;DHT22;5177;50.068;8.156;2023-01-19T00:25:26;-0.80;99.90
10263;DHT22;5177;50.068;8.156;2023-01-19T00:27:52;-0.80;99.90
10263;DHT22;5177;50.068;8.156;2023-01-19T00:30:17;-0.90;99.90
10263;DHT22;5177;50.068;8.156;2023-01-19T00:32:43;-0.90;99.90
10263;DHT22;5177;50.068;8.156;2023-01-19T00:35:09;-0.90;99.90
10263;DHT22;5177;50.068;8.156;2023-01-19T00:37:34;-0.90;99.90
10263;DHT22;5177;50.068;8.156;2023-01-19T00:39:59;-0.90;99.90
10263;DHT22;5177;50.068;8.156;2023-01-19T00:42:25;-0.90;99.90
10263;DHT22;5177;50.068;8.156;2023-01-19T00:45:15;-0.90;99.90
10263;DHT22;5177;50.068;8.156;2023-01-19T00:47:42;-0.90;99.90
10263;DHT22;5177;50.068;8.156;2023-01-19T00:50:09;-1.00;99.90
10263;DHT22;5177;50.068;8.156;2023-01-19T00:52:38;-1.00;99.90
10263;DHT22;5177;50.068;8.156;2023-01-19T00:55:04;-1.00;99.90
10263;DHT22;5177;50.068;8.156;2023-01-19T00:57:30;-1.00;99.90
10263;DHT22;5177;50.068;8.156;2023-01-19T00:59:55;-1.00;99.90
10263;DHT22;5177;50.068;8.156;2023-01-19T01:02:21;-1.00;99.90
10263;DHT22;5177;50.068;8.156;2023-01-19T01:04:46;-1.00;99.90
10263;DHT22;5177;50.068;8.156;2023-01-19T01:07:12;-0.90;99.90
10263;DHT22;5177;50.068;8.156;2023-01-19T01:09:37;-0.90;99.90
10263;DHT22;5177;50.068;8.156;2023-01-19T01:12:03;-0.80;99.90
10263;DHT22;5177;50.068;8.156;2023-01-19T01:14:29;-0.80;99.90
10263;DHT22;5177;50.068;8.156;2023-01-19T01:16:54;-0.80;99.90
10263;DHT22;5177;50.068;8.156;2023-01-19T01:19:20;-0.70;99.90
10263;DHT22;5177;50.068;8.156;2023-01-19T01:21:45;-0.70;99.90
10263;DHT22;5177;50.068;8.156;2023-01-19T01:24:11;-0.70;99.90
10263;DHT22;5177;50.068;8.156;2023-01-19T01:26:36;-0.60;99.90
10263;DHT22;5177;50.068;8.156;2023-01-19T01:29:03;-0.70;99.90
10263;DHT22;5177;50.068;8.156;2023-01-19T01:31:28;-0.70;99.90
10263;DHT22;5177;50.068;8.156;2023-01-19T01:33:55;-0.70;99.90
10263;DHT22;5177;50.068;8.156;2023-01-19T01:36:20;-0.80;99.90
10263;DHT22;5177;50.068;8.156;2023-01-19T01:38:46;-0.90;99.90
10263;DHT22;5177;50.068;8.156;2023-01-19T01:41:11;-1.00;99.90
10263;DHT22;5177;50.068;8.156;2023-01-19T01:43:40;-1.10;99.90
10263;DHT22;5177;50.068;8.156;2023-01-19T01:46:06;-1.20;99.90
10263;DHT22;5177;50.068;8.156;2023-01-19T01:48:32;-1.30;99.90
10263;DHT22;5177;50.068;8.156;2023-01-19T01:51:09;-1.40;99.90
10263;DHT22;5177;50.068;8.156;2023-01-19T01:53:59;-1.40;99.90
10263;DHT22;5177;50.068;8.156;2023-01-19T01:56:29;-1.40;99.90
10263;DHT22;5177;50.068;8.156;2023-01-19T01:58:57;-1.50;99.90
10263;DHT22;5177;50.068;8.156;2023-01-19T02:01:22;-1.50;99.90
10263;DHT22;5177;50.068;8.156;2023-01-19T02:04:06;-1.50;99.90
10263;DHT22;5177;50.068;8.156;2023-01-19T02:06:32;-1.50;99.90
10263;DHT22;5177;50.068;8.156;2023-01-19T02:08:59;-1.50;99.90
10263;DHT22;5177;50.068;8.156;2023-01-19T02:11:45;-1.50;99.90
10263;DHT22;5177;50.068;8.156;2023-01-19T02:14:29;-1.50;99.90
10263;DHT22;5177;50.068;8.156;2023-01-19T02:16:55;-1.40;99.90
10263;DHT22;5177;50.068;8.156;2023-01-19T02:19:21;-1.40;99.90
10263;DHT22;5177;50.068;8.156;2023-01-19T02:22:32;-1.40;99.90
10263;DHT22;5177;50.068;8.156;2023-01-19T02:24:37;-1.40;99.90
10263;DHT22;5177;50.068;8.156;2023-01-19T02:27:03;-1.40;99.90
10263;DHT22;5177;50.068;8.156;2023-01-19T02:29:29;-1.40;99.90
10263;DHT22;5177;50.068;8.156;2023-01-19T02:31:54;-1.40;99.90
10263;DHT22;5177;50.068;8.156;2023-01-19T02:34:21;-1.40;99.90
10263;DHT22;5177;50.068;8.156;2023-01-19T02:36:53;-1.40;99.90
10263;DHT22;5177;50.068;8.156;2023-01-19T02:39:33;-1.40;99.90
10263;DHT22;5177;50.068;8.156;2023-01-19T02:42:02;-1.40;99.90
10263;DHT22;5177;50.068;8.156;2023-01-19T02:44:28;-1.30;99.90
10263;DHT22;5177;50.068;8.156;2023-01-19T02:46:54;-1.40;99.90
10263;DHT22;5177;50.068;8.156;2023-01-19T02:49:20;-1.40;99.90
10263;DHT22;5177;50.068;8.156;2023-01-19T02:51:46;-1.40;99.90
10263;DHT22;5177;50.068;8.156;2023-01-19T02:54:28;-1.30;99.90
10263;DHT22;5177;50.068;8.156;2023-01-19T02:57:01;-1.30;99.90
10263;DHT22;5177;50.068;8.156;2023-01-19T02:59:39;-1.30;99.90
10263;DHT22;5177;50.068;8.156;2023-01-19T03:07:29;-1.20;99.90
10263;DHT22;5177;50.068;8.156;2023-01-19T03:12:39;-1.10;99.90
10263;DHT22;5177;50.068;8.156;2023-01-19T03:15:10;-1.10;99.90
10263;DHT22;5177;50.068;8.156;2023-01-19T03:17:37;-1.00;99.90
10263;DHT22;5177;50.068;8.156;2023-01-19T03:20:03;-0.90;99.90
10263;DHT22;5177;50.068;8.156;2023-01-19T03:22:29;-1.00;99.90
10263;DHT22;5177;50.068;8.156;2023-01-19T03:24:58;-1.00;99.90
10263;DHT22;5177;50.068;8.156;2023-01-19T03:27:26;-1.10;99.90
10263;DHT22;5177;50.068;8.156;2023-01-19T03:29:54;-1.20;99.90
10263;DHT22;5177;50.068;8.156;2023-01-19T03:32:23;-1.20;99.90
10263;DHT22;5177;50.068;8.156;2023-01-19T03:34:50;-1.30;99.90
10263;DHT22;5177;50.068;8.156;2023-01-19T03:37:17;-1.30;99.90
10263;DHT22;5177;50.068;8.156;2023-01-19T03:39:43;-1.20;99.90
10263;DHT22;5177;50.068;8.156;2023-01-19T03:42:10;-1.20;99.90
10263;DHT22;5177;50.068;8.156;2023-01-19T03:44:37;-1.20;99.90
10263;DHT22;5177;50.068;8.156;2023-01-19T03:47:04;-1.10;99.90
10263;DHT22;5177;50.068;8.156;2023-01-19T03:49:31;-1.10;99.90
10263;DHT22;5177;50.068;8.156;2023-01-19T03:51:57;-1.10;99.90
10263;DHT22;5177;50.068;8.156;2023-01-19T03:54:24;-1.10;99.90
10263;DHT22;5177;50.068;8.156;2023-01-19T03:56:50;-1.00;99.90
10263;DHT22;5177;50.068;8.156;2023-01-19T03:59:17;-0.90;99.90
10263;DHT22;5177;50.068;8.156;2023-01-19T04:01:44;-0.90;99.90
10263;DHT22;5177;50.068;8.156;2023-01-19T04:04:10;-0.80;99.90
10263;DHT22;5177;50.068;8.156;2023-01-19T04:06:35;-0.80;99.90
10263;DHT22;5177;50.068;8.156;2023-01-19T04:09:01;-0.70;99.90
10263;DHT22;5177;50.068;8.156;2023-01-19T04:11:27;-0.60;99.90
10263;DHT22;5177;50.068;8.156;2023-01-19T04:13:52;-0.60;99.90
10263;DHT22;5177;50.068;8.156;2023-01-19T04:16:18;-0.50;99.90
10263;DHT22;5177;50.068;8.156;2023-01-19T04:18:45;-0.50;99.90
10263;DHT22;5177;50.068;8.156;2023-01-19T04:21:11;-0.50;99.90
10263;DHT22;5177;50.068;8.156;2023-01-19T04:23:36;-0.50;99.90
10263;DHT22;5177;50.068;8.156;2023-01-19T04:26:05;-0.40;99.90
10263;DHT22;5177;50.068;8.156;2023-01-19T04:28:31;-0.40;99.90
10263;DHT22;5177;50.068;8.156;2023-01-19T04:30:57;-0.40;99.90
10263;DHT22;5177;50.068;8.156;2023-01-19T04:33:23;-0.40;99.90
10263;DHT22;5177;50.068;8.156;2023-01-19T04:35:49;-0.40;99.90
10263;DHT22;5177;50.068;8.156;2023-01-19T04:38:15;-0.40;99.90
10263;DHT22;5177;50.068;8.156;2023-01-19T04:40:40;-0.40;99.90
10263;DHT22;5177;50.068;8.156;2023-01-19T04:43:06;-0.40;99.90
10263;DHT22;5177;50.068;8.156;2023-01-19T04:45:32;-0.40;99.90
10263;DHT22;5177;50.068;8.156;2023-01-19T04:47:57;-0.40;99.90
10263;DHT22;5177;50.068;8.156;2023-01-19T04:50:23;-0.40;99.90
10263;DHT22;5177;50.068;8.156;2023-01-19T04:52:49;-0.30;99.90
10263;DHT22;5177;50.068;8.156;2023-01-19T04:55:14;-0.20;99.90
10263;DHT22;5177;50.068;8.156;2023-01-19T04:57:43;-0.10;99.90
10263;DHT22;5177;50.068;8.156;2023-01-19T05:00:08;0.00;99.90
10263;DHT22;5177;50.068;8.156;2023-01-19T05:02:34;0.00;99.90
10263;DHT22;5177;50.068;8.156;2023-01-19T05:05:00;0.00;99.90
10263;DHT22;5177;50.068;8.156;2023-01-19T05:07:26;-0.10;99.90
10263;DHT22;5177;50.068;8.156;2023-01-19T05:09:52;-0.10;99.90
10263;DHT22;5177;50.068;8.156;2023-01-19T05:12:18;-0.20;99.90
10263;DHT22;5177;50.068;8.156;2023-01-19T05:14:43;-0.20;99.90
10263;DHT22;5177;50.068;8.156;2023-01-19T05:17:09;-0.10;99.90
10263;DHT22;5177;50.068;8.156;2023-01-19T05:19:35;0.00;99.90
10263;DHT22;5177;50.068;8.156;2023-01-19T05:22:01;0.10;99.90
10263;DHT22;5177;50.068;8.156;2023-01-19T05:24:27;0.20;99.90
10263;DHT22;5177;50.068;8.156;2023-01-19T05:26:53;0.30;99.90
10263;DHT22;5177;50.068;8.156;2023-01-19T05:29:19;0.40;99.90
10263;DHT22;5177;50.068;8.156;2023-01-19T05:31:45;0.40;99.90
10263;DHT22;5177;50.068;8.156;2023-01-19T05:34:10;0.40;99.90
10263;DHT22;5177;50.068;8.156;2023-01-19T05:36:36;0.30;99.90
10263;DHT22;5177;50.068;8.156;2023-01-19T05:39:01;0.20;99.90
10263;DHT22;5177;50.068;8.156;2023-01-19T05:41:27;0.10;99.90
10263;DHT22;5177;50.068;8.156;2023-01-19T05:43:53;0.10;99.90
10263;DHT22;5177;50.068;8.156;2023-01-19T05:46:18;0.00;99.90
10263;DHT22;5177;50.068;8.156;2023-01-19T05:48:44;0.10;99.90
10263;DHT22;5177;50.068;8.156;2023-01-19T05:51:09;0.10;99.90
10263;DHT22;5177;50.068;8.156;2023-01-19T05:53:35;0.10;99.90
10263;DHT22;5177;50.068;8.156;2023-01-19T05:56:01;0.00;99.90
10263;DHT22;5177;50.068;8.156;2023-01-19T05:58:26;0.10;99.90
10263;DHT22;5177;50.068;8.156;2023-01-19T06:00:53;0.10;99.90
10263;DHT22;5177;50.068;8.156;2023-01-19T06:03:18;0.10;99.90
10263;DHT22;5177;50.068;8.156;2023-01-19T06:05:44;0.10;99.90
10263;DHT22;5177;50.068;8.156;2023-01-19T06:08:09;0.10;99.90
10263;DHT22;5177;50.068;8.156;2023-01-19T06:10:34;0.10;99.90
10263;DHT22;5177;50.068;8.156;2023-01-19T06:13:00;0.20;99.90
10263;DHT22;5177;50.068;8.156;2023-01-19T06:15:25;0.20;99.90
10263;DHT22;5177;50.068;8.156;2023-01-19T06:17:51;0.20;99.90
10263;DHT22;5177;50.068;8.156;2023-01-19T06:20:16;0.30;99.90
10263;DHT22;5177;50.068;8.156;2023-01-19T06:22:42;0.30;99.90
10263;DHT22;5177;50.068;8.156;2023-01-19T06:25:08;0.40;99.90
10263;DHT22;5177;50.068;8.156;2023-01-19T06:27:33;0.50;99.90
10263;DHT22;5177;50.068;8.156;2023-01-19T06:29:59;0.60;99.90
10263;DHT22;5177;50.068;8.156;2023-01-19T06:32:24;0.70;99.90
10263;DHT22;5177;50.068;8.156;2023-01-19T06:34:50;0.80;99.90
10263;DHT22;5177;50.068;8.156;2023-01-19T06:37:15;0.80;99.90
10263;DHT22;5177;50.068;8.156;2023-01-19T06:39:41;0.90;99.90
10263;DHT22;5177;50.068;8.156;2023-01-19T06:42:07;0.90;99.90
10263;DHT22;5177;50.068;8.156;2023-01-19T06:44:33;1.00;99.90
10263;DHT22;5177;50.068;8.156;2023-01-19T06:46:58;1.10;99.90
10263;DHT22;5177;50.068;8.156;2023-01-19T06:49:23;1.10;99.90
10263;DHT22;5177;50.068;8.156;2023-01-19T06:51:49;1.10;99.90
10263;DHT22;5177;50.068;8.156;2023-01-19T06:54:14;1.20;99.90
10263;DHT22;5177;50.068;8.156;2023-01-19T06:56:40;1.30;2.10
10263;DHT22;5177;50.068;8.156;2023-01-19T06:59:06;1.30;1.00
10263;DHT22;5177;50.068;8.156;2023-01-19T07:01:32;1.40;1.00
10263;DHT22;5177;50.068;8.156;2023-01-19T07:03:58;1.40;1.00
10263;DHT22;5177;50.068;8.156;2023-01-19T07:06:23;1.40;1.00
10263;DHT22;5177;50.068;8.156;2023-01-19T07:08:49;1.50;1.00
10263;DHT22;5177;50.068;8.156;2023-01-19T07:11:14;1.50;1.00
10263;DHT22;5177;50.068;8.156;2023-01-19T07:13:40;1.50;1.00
10263;DHT22;5177;50.068;8.156;2023-01-19T07:16:11;1.50;1.00
10263;DHT22;5177;50.068;8.156;2023-01-19T07:18:38;1.60;1.00
10263;DHT22;5177;50.068;8.156;2023-01-19T07:21:04;1.60;1.00
10263;DHT22;5177;50.068;8.156;2023-01-19T07:23:29;1.60;1.00
10263;DHT22;5177;50.068;8.156;2023-01-19T07:25:55;1.50;1.00
10263;DHT22;5177;50.068;8.156;2023-01-19T07:28:21;1.50;1.00
10263;DHT22;5177;50.068;8.156;2023-01-19T07:30:49;1.50;1.00
10263;DHT22;5177;50.068;8.156;2023-01-19T07:33:15;1.50;1.00
10263;DHT22;5177;50.068;8.156;2023-01-19T07:35:44;1.50;1.00
10263;DHT22;5177;50.068;8.156;2023-01-19T07:38:10;1.50;1.00
10263;DHT22;5177;50.068;8.156;2023-01-19T07:40:36;1.50;1.00
10263;DHT22;5177;50.068;8.156;2023-01-19T07:43:01;1.50;3.90
10263;DHT22;5177;50.068;8.156;2023-01-19T07:45:27;1.50;17.70
10263;DHT22;5177;50.068;8.156;2023-01-19T07:47:52;1.50;9.70
10263;DHT22;5177;50.068;8.156;2023-01-19T07:50:18;1.50;13.30
10263;DHT22;5177;50.068;8.156;2023-01-19T07:52:49;1.60;5.50
10263;DHT22;5177;50.068;8.156;2023-01-19T07:55:17;1.50;14.00
10263;DHT22;5177;50.068;8.156;2023-01-19T07:57:42;1.50;4.10
10263;DHT22;5177;50.068;8.156;2023-01-19T08:00:08;1.50;6.00
10263;DHT22;5177;50.068;8.156;2023-01-19T08:02:33;1.50;13.20
10263;DHT22;5177;50.068;8.156;2023-01-19T08:05:00;1.50;14.00
10263;DHT22;5177;50.068;8.156;2023-01-19T08:07:25;1.50;26.80
10263;DHT22;5177;50.068;8.156;2023-01-19T08:09:51;1.40;28.20
10263;DHT22;5177;50.068;8.156;2023-01-19T08:12:16;1.40;26.40
10263;DHT22;5177;50.068;8.156;2023-01-19T08:14:43;1.40;24.90
10263;DHT22;5177;50.068;8.156;2023-01-19T08:17:09;1.50;22.60
10263;DHT22;5177;50.068;8.156;2023-01-19T08:19:36;1.40;16.90
10263;DHT22;5177;50.068;8.156;2023-01-19T08:22:02;1.50;23.30
10263;DHT22;5177;50.068;8.156;2023-01-19T08:24:28;1.70;36.40
10263;DHT22;5177;50.068;8.156;2023-01-19T08:27:00;1.90;1.00
10263;DHT22;5177;50.068;8.156;2023-01-19T08:29:25;2.00;1.00
10263;DHT22;5177;50.068;8.156;2023-01-19T08:31:51;2.20;1.00
10263;DHT22;5177;50.068;8.156;2023-01-19T08:34:19;2.40;1.00
10263;DHT22;5177;50.068;8.156;2023-01-19T08:36:45;2.60;1.00
10263;DHT22;5177;50.068;8.156;2023-01-19T08:39:10;2.70;1.00
10263;DHT22;5177;50.068;8.156;2023-01-19T08:41:38;2.90;1.00
10263;DHT22;5177;50.068;8.156;2023-01-19T08:44:04;3.00;1.00
10263;DHT22;5177;50.068;8.156;2023-01-19T08:46:29;3.10;1.00
10263;DHT22;5177;50.068;8.156;2023-01-19T08:48:55;3.20;1.00
10263;DHT22;5177;50.068;8.156;2023-01-19T08:51:21;3.50;1.00
10263;DHT22;5177;50.068;8.156;2023-01-19T08:53:46;3.70;99.90
10263;DHT22;5177;50.068;8.156;2023-01-19T08:56:12;3.90;99.90
10263;DHT22;5177;50.068;8.156;2023-01-19T08:58:38;4.10;99.90
10263;DHT22;5177;50.068;8.156;2023-01-19T09:01:05;4.30;99.90
10263;DHT22;5177;50.068;8.156;2023-01-19T09:03:30;4.50;99.90
10263;DHT22;5177;50.068;8.156;2023-01-19T09:05:55;4.70;1.00
10263;DHT22;5177;50.068;8.156;2023-01-19T09:08:21;5.10;99.90
10263;DHT22;5177;50.068;8.156;2023-01-19T09:10:48;5.10;1.00
10263;DHT22;5177;50.068;8.156;2023-01-19T09:13:14;5.20;1.00
10263;DHT22;5177;50.068;8.156;2023-01-19T09:15:40;5.30;1.00
10263;DHT22;5177;50.068;8.156;2023-01-19T09:18:07;5.20;1.00
10263;DHT22;5177;50.068;8.156;2023-01-19T09:20:34;5.00;99.90
10263;DHT22;5177;50.068;8.156;2023-01-19T09:23:00;4.90;1.00
10263;DHT22;5177;50.068;8.156;2023-01-19T09:25:26;5.10;1.00
10263;DHT22;5177;50.068;8.156;2023-01-19T09:27:51;5.30;13.00
10263;DHT22;5177;50.068;8.156;2023-01-19T09:30:17;5.20;99.90
10263;DHT22;5177;50.068;8.156;2023-01-19T09:32:43;5.10;1.00
10263;DHT22;5177;50.068;8.156;2023-01-19T09:35:09;5.10;99.90
10263;DHT22;5177;50.068;8.156;2023-01-19T09:37:35;4.90;99.90
10263;DHT22;5177;50.068;8.156;2023-01-19T09:40:00;4.80;1.00
10263;DHT22;5177;50.068;8.156;2023-01-19T09:42:29;4.70;1.00
10263;DHT22;5177;50.068;8.156;2023-01-19T09:44:57;4.70;1.00
10263;DHT22;5177;50.068;8.156;2023-01-19T09:47:23;4.50;99.90
10263;DHT22;5177;50.068;8.156;2023-01-19T09:50:00;4.70;99.90
10263;DHT22;5177;50.068;8.156;2023-01-19T09:52:27;4.70;99.90
10263;DHT22;5177;50.068;8.156;2023-01-19T09:54:55;4.80;27.00
10263;DHT22;5177;50.068;8.156;2023-01-19T09:57:22;4.80;1.00
10263;DHT22;5177;50.068;8.156;2023-01-19T09:59:48;4.80;1.00
10263;DHT22;5177;50.068;8.156;2023-01-19T10:09:58;4.50;99.90
10263;DHT22;5177;50.068;8.156;2023-01-19T10:12:29;4.40;99.90
10263;DHT22;5177;50.068;8.156;2023-01-19T10:17:51;4.30;99.90
10263;DHT22;5177;50.068;8.156;2023-01-19T10:20:25;4.20;99.90
10263;DHT22;5177;50.068;8.156;2023-01-19T10:22:52;4.10;1.00
10263;DHT22;5177;50.068;8.156;2023-01-19T10:25:19;4.10;1.00
10263;DHT22;5177;50.068;8.156;2023-01-19T10:27:47;4.00;1.00
10263;DHT22;5177;50.068;8.156;2023-01-19T10:30:15;4.00;1.00
10263;DHT22;5177;50.068;8.156;2023-01-19T10:32:42;3.90;1.00
10263;DHT22;5177;50.068;8.156;2023-01-19T10:35:13;3.80;5.70
10263;DHT22;5177;50.068;8.156;2023-01-19T10:37:45;3.80;1.00
10263;DHT22;5177;50.068;8.156;2023-01-19T10:42:38;3.70;1.00
10263;DHT22;5177;50.068;8.156;2023-01-19T10:45:16;3.50;25.10
10263;DHT22;5177;50.068;8.156;2023-01-19T10:47:42;3.70;99.90
10263;DHT22;5177;50.068;8.156;2023-01-19T10:50:42;3.90;99.90
10263;DHT22;5177;50.068;8.156;2023-01-19T10:53:02;4.10;1.00
10263;DHT22;5177;50.068;8.156;2023-01-19T10:55:32;3.90;21.70
10263;DHT22;5177;50.068;8.156;2023-01-19T10:57:58;4.10;19.90
10263;DHT22;5177;50.068;8.156;2023-01-19T11:00:28;4.00;20.00
10263;DHT22;5177;50.068;8.156;2023-01-19T11:02:54;4.10;99.90
10263;DHT22;5177;50.068;8.156;2023-01-19T11:05:21;4.10;1.00
10263;DHT22;5177;50.068;8.156;2023-01-19T11:07:47;4.10;1.00
10263;DHT22;5177;50.068;8.156;2023-01-19T11:13:03;4.00;8.70
10263;DHT22;5177;50.068;8.156;2023-01-19T11:15:47;4.00;6.10
10263;DHT22;5177;50.068;8.156;2023-01-19T11:18:28;4.10;99.90
10263;DHT22;5177;50.068;8.156;2023-01-19T11:20:58;4.10;88.10
10263;DHT22;5177;50.068;8.156;2023-01-19T11:25:59;4.00;9.10
10263;DHT22;5177;50.068;8.156;2023-01-19T11:30:55;3.80;99.90
10263;DHT22;5177;50.068;8.156;2023-01-19T11:33:22;3.80;99.90
10263;DHT22;5177;50.068;8.156;2023-01-19T11:35:47;3.70;99.90
10263;DHT22;5177;50.068;8.156;2023-01-19T11:38:18;3.80;26.00
10263;DHT22;5177;50.068;8.156;2023-01-19T11:40:47;3.90;99.90
10263;DHT22;5177;50.068;8.156;2023-01-19T11:43:14;3.90;1.00
10263;DHT22;5177;50.068;8.156;2023-01-19T11:45:40;3.90;99.90
10263;DHT22;5177;50.068;8.156;2023-01-19T11:48:06;3.90;99.90
10263;DHT22;5177;50.068;8.156;2023-01-19T11:50:38;3.90;99.90
10263;DHT22;5177;50.068;8.156;2023-01-19T11:55:51;4.10;99.90
10263;DHT22;5177;50.068;8.156;2023-01-19T11:58:18;4.10;99.90
10263;DHT22;5177;50.068;8.156;2023-01-19T12:03:19;4.10;99.90
10263;DHT22;5177;50.068;8.156;2023-01-19T12:05:47;4.10;99.90
10263;DHT22;5177;50.068;8.156;2023-01-19T12:08:17;4.20;1.00
10263;DHT22;5177;50.068;8.156;2023-01-19T12:10:44;4.30;99.90
10263;DHT22;5177;50.068;8.156;2023-01-19T12:13:31;4.20;99.90
10263;DHT22;5177;50.068;8.156;2023-01-19T12:16:02;4.30;23.10
10263;DHT22;5177;50.068;8.156;2023-01-19T12:18:32;4.20;29.40
10263;DHT22;5177;50.068;8.156;2023-01-19T12:20:59;4.30;50.90
10263;DHT22;5177;50.068;8.156;2023-01-19T12:25:58;4.30;99.90
10263;DHT22;5177;50.068;8.156;2023-01-19T12:28:27;4.40;99.90
10263;DHT22;5177;50.068;8.156;2023-01-19T12:30:54;4.40;99.90
10263;DHT22;5177;50.068;8.156;2023-01-19T12:35:52;4.50;99.90
10263;DHT22;5177;50.068;8.156;2023-01-19T12:39:05;4.30;28.60
10263;DHT22;5177;50.068;8.156;2023-01-19T12:41:25;4.40;99.90
10263;DHT22;5177;50.068;8.156;2023-01-19T12:46:34;4.40;99.90
10263;DHT22;5177;50.068;8.156;2023-01-19T12:49:10;4.10;99.90
10263;DHT22;5177;50.068;8.156;2023-01-19T12:51:39;4.20;99.90
10263;DHT22;5177;50.068;8.156;2023-01-19T12:54:05;4.20;99.90
10263;DHT22;5177;50.068;8.156;2023-01-19T12:56:32;4.20;99.90
10263;DHT22;5177;50.068;8.156;2023-01-19T12:58:58;4.30;99.90
10263;DHT22;5177;50.068;8.156;2023-01-19T13:01:24;4.30;99.90
10263;DHT22;5177;50.068;8.156;2023-01-19T13:04:04;4.20;99.90
10263;DHT22;5177;50.068;8.156;2023-01-19T13:09:29;4.10;99.90
10263;DHT22;5177;50.068;8.156;2023-01-19T13:12:18;4.10;99.90
10263;DHT22;5177;50.068;8.156;2023-01-19T13:14:42;4.20;99.90
10263;DHT22;5177;50.068;8.156;2023-01-19T13:17:22;4.10;99.90
10263;DHT22;5177;50.068;8.156;2023-01-19T13:19:51;4.10;99.90
10263;DHT22;5177;50.068;8.156;2023-01-19T13:25:11;4.20;99.90
10263;DHT22;5177;50.068;8.156;2023-01-19T13:27:37;4.30;99.90
10263;DHT22;5177;50.068;8.156;2023-01-19T13:30:14;4.20;99.90
10263;DHT22;5177;50.068;8.156;2023-01-19T13:32:40;4.30;99.90
10263;DHT22;5177;50.068;8.156;2023-01-19T13:35:11;4.30;99.90
10263;DHT22;5177;50.068;8.156;2023-01-19T13:37:38;4.40;99.90
10263;DHT22;5177;50.068;8.156;2023-01-19T13:40:04;4.30;99.90
10263;DHT22;5177;50.068;8.156;2023-01-19T13:44:57;4.40;99.90
10263;DHT22;5177;50.068;8.156;2023-01-19T13:47:28;4.30;99.90
10263;DHT22;5177;50.068;8.156;2023-01-19T13:49:57;4.30;1.00
10263;DHT22;5177;50.068;8.156;2023-01-19T13:52:24;4.30;1.00
10263;DHT22;5177;50.068;8.156;2023-01-19T13:54:53;4.20;99.90
10263;DHT22;5177;50.068;8.156;2023-01-19T14:10:33;4.10;99.90
10263;DHT22;5177;50.068;8.156;2023-01-19T14:12:59;4.20;1.00
10263;DHT22;5177;50.068;8.156;2023-01-19T14:15:25;4.20;99.90
10263;DHT22;5177;50.068;8.156;2023-01-19T14:18:07;4.20;99.90
10263;DHT22;5177;50.068;8.156;2023-01-19T14:20:33;4.20;1.00
10263;DHT22;5177;50.068;8.156;2023-01-19T14:23:01;4.30;1.00
10263;DHT22;5177;50.068;8.156;2023-01-19T14:30:51;4.40;99.90
10263;DHT22;5177;50.068;8.156;2023-01-19T14:33:32;4.40;1.00
10263;DHT22;5177;50.068;8.156;2023-01-19T14:36:07;4.40;1.00
10263;DHT22;5177;50.068;8.156;2023-01-19T14:38:33;4.40;99.90
10263;DHT22;5177;50.068;8.156;2023-01-19T14:40:58;4.40;1.00
10263;DHT22;5177;50.068;8.156;2023-01-19T14:43:24;4.40;99.90
10263;DHT22;5177;50.068;8.156;2023-01-19T14:45:52;4.40;99.90
10263;DHT22;5177;50.068;8.156;2023-01-19T14:48:19;4.50;99.90
10263;DHT22;5177;50.068;8.156;2023-01-19T14:50:46;4.50;99.90
10263;DHT22;5177;50.068;8.156;2023-01-19T14:53:20;4.50;99.90
10263;DHT22;5177;50.068;8.156;2023-01-19T14:55:48;4.50;99.90
10263;DHT22;5177;50.068;8.156;2023-01-19T14:58:16;4.40;99.90
10263;DHT22;5177;50.068;8.156;2023-01-19T15:00:42;4.40;99.90
10263;DHT22;5177;50.068;8.156;2023-01-19T15:03:08;4.40;99.90
10263;DHT22;5177;50.068;8.156;2023-01-19T15:05:35;4.50;99.90
10263;DHT22;5177;50.068;8.156;2023-01-19T15:08:01;4.40;99.90
10263;DHT22;5177;50.068;8.156;2023-01-19T15:10:27;4.40;99.90
10263;DHT22;5177;50.068;8.156;2023-01-19T15:12:53;4.50;99.90
10263;DHT22;5177;50.068;8.156;2023-01-19T15:15:19;4.40;99.90
10263;DHT22;5177;50.068;8.156;2023-01-19T15:17:47;4.40;99.90
10263;DHT22;5177;50.068;8.156;2023-01-19T15:20:17;4.40;99.90
10263;DHT22;5177;50.068;8.156;2023-01-19T15:22:43;4.40;99.90
10263;DHT22;5177;50.068;8.156;2023-01-19T15:25:11;4.40;99.90
10263;DHT22;5177;50.068;8.156;2023-01-19T15:27:37;4.30;99.90
10263;DHT22;5177;50.068;8.156;2023-01-19T15:30:02;4.30;99.90
10263;DHT22;5177;50.068;8.156;2023-01-19T15:32:28;4.20;99.90
10263;DHT22;5177;50.068;8.156;2023-01-19T15:34:53;4.10;99.90
10263;DHT22;5177;50.068;8.156;2023-01-19T15:37:19;4.10;99.90
10263;DHT22;5177;50.068;8.156;2023-01-19T15:39:44;4.10;99.90
10263;DHT22;5177;50.068;8.156;2023-01-19T15:42:13;4.10;99.90
10263;DHT22;5177;50.068;8.156;2023-01-19T15:44:38;4.10;99.90
10263;DHT22;5177;50.068;8.156;2023-01-19T15:47:04;4.10;99.90
10263;DHT22;5177;50.068;8.156;2023-01-19T15:49:29;4.10;99.90
10263;DHT22;5177;50.068;8.156;2023-01-19T15:51:55;4.10;99.90
10263;DHT22;5177;50.068;8.156;2023-01-19T15:54:20;4.10;99.90
10263;DHT22;5177;50.068;8.156;2023-01-19T15:56:46;4.10;99.90
10263;DHT22;5177;50.068;8.156;2023-01-19T15:59:12;4.10;99.90
10263;DHT22;5177;50.068;8.156;2023-01-19T16:01:37;4.10;1.00
10263;DHT22;5177;50.068;8.156;2023-01-19T16:04:05;4.00;99.90
10263;DHT22;5177;50.068;8.156;2023-01-19T16:06:31;4.00;99.90
10263;DHT22;5177;50.068;8.156;2023-01-19T16:08:56;4.00;99.90
10263;DHT22;5177;50.068;8.156;2023-01-19T16:11:28;4.00;1.00
10263;DHT22;5177;50.068;8.156;2023-01-19T16:13:54;3.90;1.00
10263;DHT22;5177;50.068;8.156;2023-01-19T16:16:21;3.90;1.00
10263;DHT22;5177;50.068;8.156;2023-01-19T16:18:47;3.80;1.00
10263;DHT22;5177;50.068;8.156;2023-01-19T16:21:12;3.70;1.00
10263;DHT22;5177;50.068;8.156;2023-01-19T16:23:38;3.70;1.00
10263;DHT22;5177;50.068;8.156;2023-01-19T16:26:05;3.60;1.00
10263;DHT22;5177;50.068;8.156;2023-01-19T16:28:34;3.60;1.00
10263;DHT22;5177;50.068;8.156;2023-01-19T16:30:59;3.50;1.00
10263;DHT22;5177;50.068;8.156;2023-01-19T16:33:25;3.50;1.00
10263;DHT22;5177;50.068;8.156;2023-01-19T16:35:50;3.50;1.00
10263;DHT22;5177;50.068;8.156;2023-01-19T16:38:16;3.40;1.00
10263;DHT22;5177;50.068;8.156;2023-01-19T16:40:45;3.40;1.00
10263;DHT22;5177;50.068;8.156;2023-01-19T16:43:11;3.40;1.00
10263;DHT22;5177;50.068;8.156;2023-01-19T16:45:52;3.40;1.00
10263;DHT22;5177;50.068;8.156;2023-01-19T16:48:19;3.30;1.00
10263;DHT22;5177;50.068;8.156;2023-01-19T16:50:53;3.30;1.00
10263;DHT22;5177;50.068;8.156;2023-01-19T16:53:21;3.30;1.00
10263;DHT22;5177;50.068;8.156;2023-01-19T16:55:46;3.20;1.00
10263;DHT22;5177;50.068;8.156;2023-01-19T16:58:12;3.20;1.00
10263;DHT22;5177;50.068;8.156;2023-01-19T17:00:38;3.30;1.00
10263;DHT22;5177;50.068;8.156;2023-01-19T17:03:03;3.30;1.00
10263;DHT22;5177;50.068;8.156;2023-01-19T17:05:29;3.40;99.90
10263;DHT22;5177;50.068;8.156;2023-01-19T17:07:54;3.40;99.90
10263;DHT22;5177;50.068;8.156;2023-01-19T17:10:20;3.50;99.90